Georgis, Lisa
United StatesWomanBorn 19692013 – 2026Runner id 561264
Events
80
61 race dates
Best pace
11.009
km/h · 2017
Best finish
2nd
of 107 · 2016
Distance raced
9,697
km · splits not double-counted
Pace over time
km/h · higher is faster
Pace over time: 61 races and 19 splits from 2013 to 2026, ranging from 2.01 to 12.11 kilometres per hour, where higher is faster. A second, age-graded series is drawn above it; the gap between the two is the age credit.
- Actual pace
- Age-graded pace
- Split of a race already plotted
Results
| Date | Event | Distance | Result | Pace km/h | Placing |
|---|---|---|---|---|---|
| 2013-10-06 | 50km | 6:30:05 h | 7.691 | 147/283 | |
| 2014-06-21 | 100km | 15:26:05 h | 6.479 | 17/22 | |
| 2014-11-15 | 60km | 5:56:06 h | 10.110 | 85/301 | |
| 2015-06-20 | The Great New York 100 km Running ExpositionUnited States | 100km | 13:24:28 h | 7.458 | 7/28 |
| 2015-07-18 | Lone Ranger 24 hr Urban UltraUnited States | 24h | 136.150 km | 5.673 | 15/128 |
| 2015-11-14 | 60km | 5:27:30 h | 10.992 | 51/350 | |
| 2016-05-14 | 24h | 161.200 km | 6.717 | 17/41 | |
| 2016-07-30 | Endless Summer 6-Hour RunUnited States | 6h | 52.430 km | 8.738 | 23/42 |
| 2016-11-19 | 24h | 164.328 km | 6.847 | 2/107 | |
| 2017-03-18 | 50km | 4:32:31 h | 11.009 | 11/51 | |
| 2017-05-13 | 24h | 120.800 km | 5.033 | 16/37 | |
| 2017-05-13 | Dawn to Dusk to Dawn 24 Hour - 100km SplitUnited StatesIAU SilverSplit of a longer race in this career; not counted again in the distance total | 100km | 12:24:44 h | 8.057 | 8/23 |
| 2017-05-13 | Dawn to Dusk to Dawn 24 Hour - 50mi SplitUnited StatesIAU SilverSplit of a longer race in this career; not counted again in the distance total | 50mi | 9:37:38 h | 8.358 | 10/28 |
| 2017-05-13 | Dawn to Dusk to Dawn 24 Hour - 50km SplitUnited StatesIAU SilverSplit of a longer race in this career; not counted again in the distance total | 50km | 5:14:48 h | 9.530 | 8/37 |
| 2017-06-17 | 100mi | 27:10:30 h | 5.922 | 49/60 | |
| 2017-07-22 | Montour 24 Endurance Runs - 12hrs day runUnited States | 12h | 89.318 km | 7.443 | 7/40 |
| 2017-11-18 | 24h | 131.048 km | 5.460 | 16/110 | |
| 2018-03-17 | 50km | 4:47:13 h | 10.445 | 14/34 | |
| 2018-05-12 | 24h | 168.009 km | 7.000 | 6/37 | |
| 2018-06-23 | 100mi | 28:36:11 h | 5.626 | 48/61 | |
| 2018-11-17 | 24h | 88.513 km | 3.688 | 49/142 | |
| 2019-05-11 | 24h | 130.000 km | 5.417 | 20/48 | |
| 2019-07-13 | 24h | 153.505 km | 6.396 | 9/36 | |
| 2019-08-23 | 48h | 192.016 km | 4.000 | 16/29 | |
| 2019-08-23 | Six Days in the Dome - The Redux 48h - 100mi SplitUnited StatesSplit of a longer race in this career; not counted again in the distance total*New Ringgold, PA | 100mi | 40:51:19 h | 3.939 | 21/23 |
| 2019-08-23 | Six Days in the Dome - The Redux 48h - 100km SplitUnited StatesSplit of a longer race in this career; not counted again in the distance total*New Ringgold, PA | 100km | 20:25:31 h | 4.896 | 21/27 |
| 2019-08-23 | Six Days in the Dome - The Redux 48h - 50mi SplitUnited StatesSplit of a longer race in this career; not counted again in the distance total*New Ringgold, PA | 50mi | 14:14:57 h | 5.647 | 20/29 |
| 2019-08-23 | Six Days in the Dome - The Redux 48h - 50km SplitUnited StatesSplit of a longer race in this career; not counted again in the distance total*New Ringgold, PA | 50km | 5:28:21 h | 9.137 | 6/29 |
| 2019-09-28 | 24h | 126.236 km | 5.260 | 5/11 | |
| 2019-11-23 | 24h | 122.578 km | 5.107 | 10/112 | |
| 2020-03-06 | 35h | 118.769 km | 3.393 | 4/16 | |
| 2021-03-12 | 35h | 145.162 km | 4.147 | 4/21 | |
| 2021-04-24 | 24h | 127.138 km | 5.297 | 9/164 | |
| 2021-05-29 | 24h | 48.280 km | 2.012 | 37/39 | |
| 2021-10-01 | 24h | 88.513 km | 3.688 | 26/35 | |
| 2021-11-20 | 24h | 125.758 km | 5.240 | 15/137 | |
| 2022-03-11 | 35h | 115.470 km | 3.299 | 4/6 | |
| 2022-05-07 | 24h | 109.600 km | 4.567 | 11/25 | |
| 2022-05-28 | Bubbletown What the Duck UltraUnited States | 12h | 85.745 km | 7.145 | 5/51 |
| 2022-06-17 | 48h | 247.004 km | 5.146 | 2/15 | |
| 2022-08-06 | 12h | 78.455 km | 6.538 | 17/66 | |
| 2022-09-10 | 100km | 14:26:30 h | 6.924 | 12/26 | |
| 2022-09-30 | 24h | 101.388 km | 4.225 | 13/39 | |
| 2022-11-19 | 24h | 130.810 km | 5.450 | 9/151 | |
| 2023-01-20 | 34h | 161.256 km | 4.743 | 29/177 | |
| 2023-03-10 | 35h | 171.717 km | 4.906 | 2/16 | |
| 2023-04-30 | 50km | 6:12:07 h | 8.062 | 32/49 | |
| 2023-05-13 | 24h | 147.890 km | 6.162 | 10/33 | |
| 2023-05-13 | Dawn to Dusk to Dawn 24 Hour - 100km SplitUnited StatesIAU BronzeSplit of a longer race in this career; not counted again in the distance total*New Ringgold, PA | 100km | 15:46:20 h | 6.340 | 13/18 |
| 2023-05-13 | Dawn to Dusk to Dawn 24 Hour - 50mi SplitUnited StatesIAU BronzeSplit of a longer race in this career; not counted again in the distance total*New Ringgold, PA | 50mi | 11:44:58 h | 6.849 | 16/22 |
Showing 1–50 of 80